Time;durP1;ratioP1;P1;durP2;ratioP2;P2;SDS_P1;SDS_P2;PMS_P1;PMS_P2;Temp;Humidity;BMP_temperature;BMP_pressure;BME280_temperature;BME280_humidity;BME280_pressure;Samples;Min_cycle;Max_cycle;Signal;HPM_P1;HPM_P2
2022/05/18 00:01:48;;;;;;;6.50;4.60;;;19.50;70.60;;;;;;5054407;28;20081;-67
2022/05/18 00:04:13;;;;;;;7.07;4.13;;;19.50;70.90;;;;;;5051033;28;20403;-68
2022/05/18 00:06:39;;;;;;;8.45;4.70;;;19.50;71.10;;;;;;5051588;28;20020;-67
2022/05/18 00:09:04;;;;;;;6.22;4.13;;;19.40;71.20;;;;;;5058058;28;20017;-67
2022/05/18 00:11:33;;;;;;;8.80;4.53;;;19.40;71.20;;;;;;5048839;28;20017;-67
2022/05/18 00:13:58;;;;;;;5.10;3.70;;;19.40;71.40;;;;;;5047716;28;20013;-67
2022/05/18 00:16:26;;;;;;;5.15;4.13;;;19.30;71.40;;;;;;5054511;28;20031;-67
2022/05/18 00:18:53;;;;;;;8.25;4.88;;;19.30;71.40;;;;;;5052798;28;20632;-67
2022/05/18 00:21:19;;;;;;;5.13;3.70;;;19.30;71.50;;;;;;5042199;28;20027;-67
2022/05/18 00:23:45;;;;;;;4.97;3.35;;;19.30;71.60;;;;;;5049717;28;20112;-67
2022/05/18 00:26:10;;;;;;;5.45;4.10;;;19.30;71.60;;;;;;5050666;28;20024;-67
2022/05/18 00:28:36;;;;;;;7.40;4.88;;;19.30;71.80;;;;;;5062805;28;20410;-68
2022/05/18 00:31:03;;;;;;;6.15;4.03;;;19.20;72.20;;;;;;5062628;28;20105;-67
2022/05/18 00:33:29;;;;;;;6.80;5.00;;;19.20;72.30;;;;;;5061392;28;20032;-67
2022/05/18 00:35:57;;;;;;;6.20;4.35;;;19.20;72.40;;;;;;5053776;28;20083;-68
2022/05/18 00:38:23;;;;;;;7.60;4.80;;;19.20;72.40;;;;;;5049998;28;20033;-68
2022/05/18 00:40:50;;;;;;;5.72;4.30;;;19.20;72.50;;;;;;5056274;28;20032;-68
2022/05/18 00:43:29;;;;;;;4.90;3.97;;;19.20;72.50;;;;;;5054084;28;20036;-68
2022/05/18 00:45:56;;;;;;;6.25;4.50;;;19.20;72.40;;;;;;5065783;28;20107;-69
2022/05/18 00:48:21;;;;;;;6.47;4.05;;;19.20;72.40;;;;;;5049798;28;20033;-69
2022/05/18 00:50:47;;;;;;;7.50;4.50;;;19.20;72.30;;;;;;5065785;28;20104;-69
2022/05/18 00:53:19;;;;;;;6.47;4.80;;;19.20;72.30;;;;;;5045595;28;20104;-69
2022/05/18 00:55:49;;;;;;;6.68;4.55;;;19.20;72.50;;;;;;5050022;28;20496;-69
2022/05/18 00:58:34;;;;;;;9.52;5.22;;;19.20;72.80;;;;;;5043238;28;20041;-69
2022/05/18 01:01:00;;;;;;;6.40;4.45;;;19.20;73.10;;;;;;5042875;28;20099;-69
2022/05/18 01:03:29;;;;;;;7.75;5.93;;;19.10;73.00;;;;;;5052284;28;20032;-69
2022/05/18 01:06:04;;;;;;;9.05;5.78;;;19.10;73.50;;;;;;5050624;28;20029;-68
2022/05/18 01:08:45;;;;;;;8.30;5.20;;;19.00;73.70;;;;;;5054726;28;20032;-69
2022/05/18 01:11:11;;;;;;;6.80;5.10;;;19.00;73.60;;;;;;5030002;28;20480;-68
2022/05/18 01:13:37;;;;;;;6.82;4.60;;;19.00;73.70;;;;;;5052886;28;20274;-68
2022/05/18 01:16:03;;;;;;;8.38;4.78;;;19.10;73.60;;;;;;5070292;28;20025;-68
2022/05/18 01:18:28;;;;;;;7.15;4.55;;;19.10;73.40;;;;;;5050987;28;20148;-68
2022/05/18 01:20:54;;;;;;;7.18;4.63;;;19.10;73.20;;;;;;5054349;28;20037;-68
2022/05/18 01:23:28;;;;;;;8.27;5.20;;;19.10;73.20;;;;;;5052412;28;20112;-68
2022/05/18 01:26:13;;;;;;;7.30;4.90;;;19.10;73.40;;;;;;5066951;28;20425;-69
2022/05/18 01:28:43;;;;;;;6.22;3.92;;;19.10;73.30;;;;;;5057614;28;20569;-69
2022/05/18 01:31:08;;;;;;;6.50;4.57;;;19.10;73.20;;;;;;5070015;28;20030;-69
2022/05/18 01:33:35;;;;;;;6.63;4.30;;;19.10;73.10;;;;;;5063577;28;20107;-69
2022/05/18 01:36:01;;;;;;;5.97;4.10;;;19.10;73.10;;;;;;5050193;28;20025;-69
2022/05/18 01:38:27;;;;;;;6.07;4.63;;;19.00;73.10;;;;;;5052780;28;20055;-69
2022/05/18 01:41:19;;;;;;;5.35;4.13;;;19.00;73.10;;;;;;5059383;28;20060;-69
2022/05/18 01:43:49;;;;;;;5.78;4.10;;;19.10;73.20;;;;;;5052070;28;20167;-69
2022/05/18 01:46:17;;;;;;;5.95;4.20;;;19.10;73.00;;;;;;5058138;28;20057;-68
2022/05/18 01:48:46;;;;;;;6.97;3.78;;;19.10;72.90;;;;;;5051111;28;20098;-68
2022/05/18 01:51:21;;;;;;;5.20;3.63;;;19.10;72.60;;;;;;5061124;28;20151;-68
2022/05/18 01:53:47;;;;;;;4.40;3.35;;;19.10;72.50;;;;;;5056939;28;20017;-68
2022/05/18 01:56:12;;;;;;;5.32;3.72;;;19.10;72.30;;;;;;5068101;28;20073;-68
2022/05/18 01:58:38;;;;;;;5.38;3.45;;;19.10;72.30;;;;;;5046853;28;20025;-68
2022/05/18 02:01:03;;;;;;;6.80;3.80;;;19.10;72.20;;;;;;5062191;28;20025;-69
2022/05/18 02:03:29;;;;;;;6.07;4.00;;;19.10;72.20;;;;;;5060353;28;20062;-69
2022/05/18 02:05:55;;;;;;;4.90;4.10;;;19.10;72.10;;;;;;5067279;28;20044;-69
2022/05/18 02:08:22;;;;;;;5.85;4.15;;;19.10;72.10;;;;;;5062674;28;20601;-69
2022/05/18 02:10:49;;;;;;;10.30;6.60;;;19.20;72.10;;;;;;5067885;28;20190;-69
2022/05/18 02:13:15;;;;;;;8.98;5.07;;;19.10;72.30;;;;;;5066420;28;20024;-69
2022/05/18 02:15:41;;;;;;;7.00;4.22;;;19.10;72.20;;;;;;5058500;28;20025;-68
2022/05/18 02:18:06;;;;;;;6.97;4.00;;;19.10;72.10;;;;;;5059059;28;20139;-68
2022/05/18 02:20:33;;;;;;;5.72;3.75;;;19.10;72.00;;;;;;5059968;28;20051;-68
2022/05/18 02:22:59;;;;;;;5.30;3.80;;;19.10;72.00;;;;;;5051299;28;20025;-68
2022/05/18 02:25:25;;;;;;;5.63;4.00;;;19.10;72.00;;;;;;5055743;28;20051;-68
2022/05/18 02:27:51;;;;;;;5.65;4.13;;;19.10;72.00;;;;;;5055062;28;20029;-69
2022/05/18 02:30:17;;;;;;;4.55;3.75;;;19.10;72.00;;;;;;5059410;28;20114;-69
2022/05/18 02:32:42;;;;;;;4.10;3.67;;;19.10;72.00;;;;;;5062853;28;20034;-69
2022/05/18 02:35:08;;;;;;;5.22;3.83;;;19.10;71.90;;;;;;5067820;28;20439;-68
2022/05/18 02:37:34;;;;;;;5.40;4.00;;;19.10;72.00;;;;;;5061318;28;20482;-69
2022/05/18 02:40:00;;;;;;;5.20;3.90;;;19.10;71.90;;;;;;5062002;28;20036;-69
2022/05/18 02:42:25;;;;;;;5.72;4.00;;;19.00;71.90;;;;;;5074847;28;20024;-69
2022/05/18 02:44:51;;;;;;;7.07;4.47;;;19.00;72.00;;;;;;5062583;28;20028;-68
2022/05/18 02:47:18;;;;;;;5.47;4.00;;;19.00;72.20;;;;;;5056184;28;20389;-69
2022/05/18 02:49:44;;;;;;;5.93;4.22;;;19.00;72.20;;;;;;5057688;28;20199;-67
2022/05/18 02:52:10;;;;;;;4.75;3.78;;;18.90;72.20;;;;;;5057723;28;20096;-68
2022/05/18 02:57:20;;;;;;;5.85;4.15;;;18.90;72.40;;;;;;5058042;28;20071;-67
2022/05/18 02:59:46;;;;;;;4.03;3.17;;;18.90;72.40;;;;;;5049679;28;20634;-68
2022/05/18 03:02:12;;;;;;;6.25;3.78;;;18.90;72.30;;;;;;5057712;28;20020;-68
2022/05/18 03:04:37;;;;;;;5.47;3.75;;;18.90;72.30;;;;;;5045969;28;20108;-68
2022/05/18 03:07:03;;;;;;;5.35;3.63;;;18.80;72.30;;;;;;5060213;28;20102;-68
2022/05/18 03:09:29;;;;;;;4.45;3.58;;;18.90;72.30;;;;;;5042613;28;20029;-68
2022/05/18 03:11:56;;;;;;;4.88;3.85;;;18.90;72.20;;;;;;5056183;28;20021;-68
2022/05/18 03:14:22;;;;;;;4.75;3.67;;;18.90;72.20;;;;;;5055258;28;20483;-68
2022/05/18 03:16:49;;;;;;;5.85;4.03;;;18.90;72.20;;;;;;5058750;28;20028;-68
2022/05/18 03:19:15;;;;;;;4.88;3.88;;;18.90;72.20;;;;;;5048619;28;20013;-68
2022/05/18 03:24:25;;;;;;;5.95;3.50;;;18.80;72.40;;;;;;5062881;28;20502;-69
2022/05/18 03:26:51;;;;;;;3.88;2.85;;;18.80;72.40;;;;;;5061162;28;20032;-68
2022/05/18 03:29:17;;;;;;;6.30;3.13;;;18.80;72.30;;;;;;5059494;28;20021;-68
2022/05/18 03:31:44;;;;;;;4.80;3.63;;;18.80;72.30;;;;;;5057372;28;20022;-68
2022/05/18 03:34:10;;;;;;;7.07;3.10;;;18.80;72.20;;;;;;5047320;28;20024;-68
2022/05/18 03:36:36;;;;;;;4.85;3.30;;;18.80;72.20;;;;;;5060095;28;20088;-68
2022/05/18 03:39:03;;;;;;;4.97;3.45;;;18.80;72.10;;;;;;5052120;28;20021;-69
2022/05/18 03:41:28;;;;;;;4.35;3.55;;;18.80;72.10;;;;;;5057498;28;20032;-68
2022/05/18 03:43:54;;;;;;;4.45;3.20;;;18.80;72.00;;;;;;5057997;28;20074;-68
2022/05/18 03:46:19;;;;;;;4.80;3.20;;;18.80;71.90;;;;;;5056520;28;20028;-68
2022/05/18 03:48:45;;;;;;;4.90;3.53;;;18.80;71.90;;;;;;5058953;28;20105;-68
2022/05/18 03:51:13;;;;;;;5.70;3.53;;;18.80;71.80;;;;;;5059578;28;20021;-69
2022/05/18 03:53:39;;;;;;;5.97;3.60;;;18.70;72.00;;;;;;5052683;28;20537;-69
2022/05/18 03:56:05;;;;;;;4.68;3.65;;;18.80;72.00;;;;;;5064001;28;20028;-69
2022/05/18 03:58:31;;;;;;;5.07;3.47;;;18.80;72.20;;;;;;5069760;28;20031;-69
2022/05/18 04:01:00;;;;;;;6.35;4.07;;;18.80;72.10;;;;;;5053358;28;20018;-70
2022/05/18 04:03:27;;;;;;;5.88;3.50;;;18.80;72.20;;;;;;5055675;28;20035;-68
2022/05/18 04:05:53;;;;;;;4.78;3.35;;;18.70;72.00;;;;;;5052375;28;20029;-68
2022/05/18 04:08:19;;;;;;;4.47;3.10;;;18.70;72.00;;;;;;5047915;28;20025;-69
2022/05/18 04:10:45;;;;;;;4.13;3.25;;;18.80;72.10;;;;;;5049741;28;20028;-67
2022/05/18 04:13:13;;;;;;;5.03;3.40;;;18.80;72.10;;;;;;5063631;28;20375;-68
2022/05/18 04:15:39;;;;;;;3.35;2.80;;;18.80;72.10;;;;;;5053705;28;20024;-66
2022/05/18 04:18:05;;;;;;;4.75;3.05;;;18.80;72.10;;;;;;5062486;28;20021;-67
2022/05/18 04:20:30;;;;;;;5.18;3.45;;;18.90;72.00;;;;;;5039316;28;20064;-67
2022/05/18 04:22:56;;;;;;;4.35;3.03;;;18.90;71.80;;;;;;5038212;28;20029;-67
2022/05/18 04:25:25;;;;;;;4.30;2.88;;;19.00;71.70;;;;;;5046826;28;20028;-68
2022/05/18 04:27:51;;;;;;;3.97;3.00;;;19.00;71.50;;;;;;5047568;28;20625;-69
2022/05/18 04:30:18;;;;;;;4.30;2.90;;;19.00;71.50;;;;;;5044484;28;20036;-69
2022/05/18 04:32:45;;;;;;;3.67;2.88;;;19.00;71.40;;;;;;5049132;28;20017;-69
2022/05/18 04:35:15;;;;;;;6.03;2.80;;;19.10;71.30;;;;;;5048699;28;20029;-69
2022/05/18 04:37:41;;;;;;;3.78;3.03;;;19.10;71.60;;;;;;5067935;28;20020;-67
2022/05/18 04:40:08;;;;;;;3.42;2.80;;;19.10;71.10;;;;;;5048467;28;20466;-68
2022/05/18 04:42:34;;;;;;;4.75;3.08;;;19.20;71.10;;;;;;5048097;28;20057;-69
2022/05/18 04:45:00;;;;;;;5.05;3.60;;;19.20;70.90;;;;;;5033079;28;20112;-69
2022/05/18 04:47:26;;;;;;;5.18;3.22;;;19.20;71.00;;;;;;5036709;28;20109;-69
2022/05/18 04:49:52;;;;;;;4.35;2.97;;;19.30;70.90;;;;;;5043756;28;20031;-69
2022/05/18 04:52:19;;;;;;;4.80;3.42;;;19.30;70.70;;;;;;5049611;28;20402;-69
2022/05/18 04:54:44;;;;;;;7.50;4.10;;;19.30;70.70;;;;;;5044355;28;21316;-68
2022/05/18 04:57:10;;;;;;;4.88;3.53;;;19.40;70.60;;;;;;5048895;28;20024;-68
2022/05/18 04:59:35;;;;;;;6.50;3.75;;;19.40;70.60;;;;;;5037868;28;20028;-68
2022/05/18 05:02:02;;;;;;;5.80;3.47;;;19.40;70.70;;;;;;5037148;28;20074;-69
2022/05/18 05:04:28;;;;;;;5.43;3.33;;;19.40;70.60;;;;;;5041181;28;20064;-69
2022/05/18 05:06:53;;;;;;;3.70;2.95;;;19.50;70.60;;;;;;5053938;28;20071;-68
2022/05/18 05:09:22;;;;;;;4.30;2.83;;;19.50;70.40;;;;;;5042894;28;20577;-68
2022/05/18 05:11:48;;;;;;;4.00;3.17;;;19.60;70.20;;;;;;5049667;28;20036;-68
2022/05/18 05:14:13;;;;;;;5.25;3.40;;;19.60;70.30;;;;;;5042514;28;20037;-68
2022/05/18 05:16:39;;;;;;;6.90;4.25;;;19.60;70.30;;;;;;5051244;28;20163;-68
2022/05/18 05:19:05;;;;;;;4.45;2.72;;;19.50;70.70;;;;;;5040649;28;20101;-69
2022/05/18 05:21:30;;;;;;;7.25;4.00;;;19.60;71.20;;;;;;5039783;28;20048;-68
2022/05/18 05:23:56;;;;;;;7.57;4.38;;;19.60;70.50;;;;;;5043892;28;20094;-68
2022/05/18 05:26:22;;;;;;;5.47;3.60;;;19.70;70.70;;;;;;5041707;28;20458;-69
2022/05/18 05:28:47;;;;;;;5.63;3.35;;;20.60;69.30;;;;;;5038862;28;20032;-68
2022/05/18 05:31:16;;;;;;;6.30;3.65;;;21.60;66.50;;;;;;5035729;28;20079;-67
2022/05/18 05:33:42;;;;;;;5.15;3.17;;;22.60;63.60;;;;;;5045951;28;20029;-68
2022/05/18 05:36:09;;;;;;;4.05;2.83;;;23.40;61.30;;;;;;5042007;28;20121;-67
2022/05/18 05:38:34;;;;;;;3.95;3.20;;;24.30;59.50;;;;;;5049365;28;20037;-67
2022/05/18 05:41:01;;;;;;;3.97;2.58;;;24.90;57.50;;;;;;5036796;28;20106;-68
2022/05/18 05:43:27;;;;;;;5.05;3.28;;;25.50;56.40;;;;;;5040939;28;20017;-68
2022/05/18 05:46:00;;;;;;;4.38;2.80;;;25.90;55.00;;;;;;5040091;28;20410;-67
2022/05/18 05:48:26;;;;;;;5.63;3.28;;;26.30;54.20;;;;;;5037643;28;20029;-68
2022/05/18 05:50:52;;;;;;;5.57;3.10;;;26.40;53.30;;;;;;5035477;28;20020;-69
2022/05/18 05:53:18;;;;;;;4.00;3.10;;;26.70;52.80;;;;;;5037992;28;20044;-67
2022/05/18 05:55:44;;;;;;;6.00;3.45;;;26.80;52.10;;;;;;5033208;28;20026;-67
2022/05/18 05:58:09;;;;;;;4.13;3.17;;;26.90;51.50;;;;;;5036444;28;20028;-68
2022/05/18 06:00:36;;;;;;;3.70;2.90;;;27.00;51.20;;;;;;5037673;28;20029;-68
2022/05/18 06:03:03;;;;;;;3.83;3.03;;;27.10;51.10;;;;;;5038384;28;20025;-68
2022/05/18 06:05:28;;;;;;;5.80;3.17;;;26.70;50.80;;;;;;5038707;28;20043;-69
2022/05/18 06:07:54;;;;;;;6.38;3.20;;;26.50;51.20;;;;;;5040357;28;20562;-69
2022/05/18 06:10:21;;;;;;;5.55;3.00;;;26.70;51.40;;;;;;5039094;28;20025;-68
2022/05/18 06:12:47;;;;;;;3.97;2.90;;;26.90;50.90;;;;;;5035861;28;20104;-68
2022/05/18 06:15:13;;;;;;;4.80;3.17;;;27.20;50.60;;;;;;5037325;28;20061;-67
2022/05/18 06:17:39;;;;;;;5.25;2.97;;;27.40;50.20;;;;;;5039602;28;20483;-67
2022/05/18 06:20:05;;;;;;;4.00;2.80;;;27.70;50.50;;;;;;5038066;28;20060;-67
2022/05/18 06:22:31;;;;;;;4.68;3.20;;;27.80;49.40;;;;;;5039634;28;20720;-67
2022/05/18 06:24:56;;;;;;;3.65;2.50;;;27.90;49.50;;;;;;5040487;28;20076;-68
2022/05/18 06:27:22;;;;;;;4.80;2.60;;;27.90;49.40;;;;;;5042332;28;20958;-67
2022/05/18 06:29:48;;;;;;;4.18;3.08;;;26.80;50.70;;;;;;5040359;28;20021;-67
2022/05/18 06:32:14;;;;;;;4.88;3.15;;;25.80;51.90;;;;;;5032319;28;20995;-68
2022/05/18 06:34:41;;;;;;;5.93;3.15;;;25.00;53.30;;;;;;5040789;28;20041;-68
2022/05/18 06:37:06;;;;;;;4.25;2.80;;;24.50;54.80;;;;;;5048442;28;20031;-67
2022/05/18 06:39:32;;;;;;;5.45;3.50;;;24.20;56.10;;;;;;5044777;28;20025;-67
2022/05/18 06:41:58;;;;;;;5.07;2.95;;;24.00;56.60;;;;;;5041526;28;20033;-67
2022/05/18 06:44:25;;;;;;;3.67;2.85;;;23.90;57.00;;;;;;5036004;28;20507;-66
2022/05/18 06:46:51;;;;;;;5.40;3.40;;;23.80;57.20;;;;;;5039707;28;20028;-66
2022/05/18 06:49:18;;;;;;;4.30;3.00;;;23.60;57.50;;;;;;5041615;28;20138;-67
2022/05/18 06:51:46;;;;;;;6.35;3.92;;;23.50;57.70;;;;;;5040875;28;20422;-67
2022/05/18 06:54:13;;;;;;;5.55;3.70;;;23.60;57.60;;;;;;5039024;28;20116;-66
2022/05/18 06:56:42;;;;;;;4.95;2.92;;;23.80;57.50;;;;;;5041322;28;20039;-64
2022/05/18 06:59:09;;;;;;;4.53;2.90;;;24.20;57.30;;;;;;5036044;28;20033;-66
2022/05/18 07:01:35;;;;;;;4.65;3.20;;;24.60;57.20;;;;;;5039406;28;20385;-66
2022/05/18 07:04:03;;;;;;;5.85;4.00;;;24.80;55.90;;;;;;5034922;28;20128;-66
2022/05/18 07:06:32;;;;;;;8.32;4.28;;;24.80;55.10;;;;;;5033184;28;20021;-66
2022/05/18 07:08:58;;;;;;;6.75;3.47;;;24.90;54.90;;;;;;5041086;28;20022;-67
2022/05/18 07:11:24;;;;;;;7.18;4.30;;;24.90;54.60;;;;;;5038671;28;20495;-67
2022/05/18 07:13:54;;;;;;;5.90;3.70;;;24.90;55.10;;;;;;5041213;28;20018;-67
2022/05/18 07:16:23;;;;;;;5.82;4.35;;;24.80;54.50;;;;;;5040614;28;20041;-67
2022/05/18 07:18:49;;;;;;;4.47;3.75;;;24.60;54.20;;;;;;5043140;28;20178;-66
2022/05/18 07:21:15;;;;;;;8.52;4.10;;;24.50;54.50;;;;;;5036947;28;20456;-67
2022/05/18 07:23:41;;;;;;;5.88;4.20;;;24.60;54.50;;;;;;5038632;28;20052;-67
2022/05/18 07:26:07;;;;;;;6.57;4.72;;;24.50;54.60;;;;;;5039146;28;20025;-67
2022/05/18 07:28:33;;;;;;;6.05;4.10;;;24.40;54.50;;;;;;5039211;28;20152;-67
2022/05/18 07:30:59;;;;;;;5.57;3.30;;;24.30;54.90;;;;;;5042588;28;20017;-67
2022/05/18 07:33:26;;;;;;;7.15;3.88;;;24.30;55.10;;;;;;5060344;28;20037;-67
2022/05/18 07:35:53;;;;;;;5.20;4.07;;;24.40;55.10;;;;;;5038796;28;20505;-66
2022/05/18 07:38:22;;;;;;;5.22;3.95;;;24.30;55.10;;;;;;5043105;28;20055;-66
2022/05/18 07:40:49;;;;;;;6.80;4.07;;;24.50;55.20;;;;;;5043905;28;20033;-65
2022/05/18 07:43:17;;;;;;;6.07;4.28;;;24.60;55.10;;;;;;5039693;28;20021;-65
2022/05/18 07:45:42;;;;;;;6.63;4.25;;;24.60;55.00;;;;;;5047828;28;20025;-67
2022/05/18 07:48:08;;;;;;;5.43;4.38;;;24.70;54.80;;;;;;5044253;28;20025;-65
2022/05/18 07:50:34;;;;;;;7.50;5.30;;;24.70;54.80;;;;;;5047426;28;20025;-65
2022/05/18 07:52:59;;;;;;;6.70;4.50;;;24.70;54.50;;;;;;5046212;28;20025;-65
2022/05/18 07:55:26;;;;;;;7.07;4.78;;;24.80;54.60;;;;;;5039300;28;20104;-66
2022/05/18 07:57:53;;;;;;;6.25;5.05;;;24.80;54.60;;;;;;5044153;28;20104;-66
2022/05/18 08:00:19;;;;;;;4.82;3.80;;;24.70;54.70;;;;;;5038680;28;20030;-66
2022/05/18 08:02:45;;;;;;;5.13;4.47;;;24.80;54.80;;;;;;5032147;28;20087;-66
2022/05/18 08:05:11;;;;;;;7.35;5.10;;;24.80;54.80;;;;;;5038473;28;20072;-66
2022/05/18 08:07:36;;;;;;;7.90;5.38;;;24.80;55.00;;;;;;5047397;28;20430;-66
2022/05/18 08:15:32;;;;;;;8.02;5.63;;;25.30;54.30;;;;;;5034836;28;20037;-67
2022/05/18 08:17:57;;;;;;;9.15;5.78;;;25.40;53.70;;;;;;5046108;28;20024;-66
2022/05/18 08:20:24;;;;;;;5.97;5.20;;;25.50;53.70;;;;;;5038777;28;20518;-66
2022/05/18 08:22:50;;;;;;;7.38;5.72;;;25.60;53.40;;;;;;5047452;28;20021;-65
2022/05/18 08:25:16;;;;;;;9.27;6.45;;;25.70;53.20;;;;;;5041187;28;20025;-65
2022/05/18 08:27:45;;;;;;;8.85;6.10;;;25.80;52.90;;;;;;5041420;28;20029;-65
2022/05/18 08:30:15;;;;;;;6.78;5.47;;;25.80;52.80;;;;;;5033025;28;20017;-66
2022/05/18 08:32:41;;;;;;;6.63;5.05;;;26.00;52.80;;;;;;5041548;28;20056;-65
2022/05/18 08:35:07;;;;;;;6.68;5.38;;;26.00;52.90;;;;;;5035609;28;20703;-66
2022/05/18 08:37:41;;;;;;;8.20;5.45;;;26.10;52.80;;;;;;5040213;28;20458;-66
2022/05/18 08:40:13;;;;;;;7.95;5.90;;;26.20;52.60;;;;;;5035520;28;20144;-65
2022/05/18 08:42:39;;;;;;;10.07;7.10;;;26.40;52.50;;;;;;5045662;28;20043;-66
2022/05/18 08:45:06;;;;;;;7.03;5.53;;;26.40;52.00;;;;;;5039910;28;20028;-65
2022/05/18 08:47:38;;;;;;;6.80;5.40;;;26.40;52.10;;;;;;5045667;28;20025;-65
2022/05/18 08:50:15;;;;;;;7.25;5.40;;;26.50;52.20;;;;;;5039001;28;20017;-66
2022/05/18 08:53:18;;;;;;;7.00;5.53;;;26.60;52.00;;;;;;5040213;28;20116;-65
2022/05/18 08:56:23;;;;;;;7.60;5.07;;;26.60;52.00;;;;;;5038528;28;20057;-66
2022/05/18 08:58:52;;;;;;;10.35;7.38;;;26.80;52.20;;;;;;5036592;28;20121;-66
2022/05/18 09:01:27;;;;;;;9.35;6.97;;;26.90;52.00;;;;;;5034600;28;20041;-67
2022/05/18 09:04:00;;;;;;;7.97;6.20;;;26.90;51.80;;;;;;5034752;28;20131;-67
2022/05/18 09:06:35;;;;;;;7.22;5.57;;;27.00;51.90;;;;;;5038377;28;20087;-67
2022/05/18 09:12:03;;;;;;;10.95;5.82;;;27.30;51.80;;;;;;5041540;28;20044;-67
2022/05/18 09:14:37;;;;;;;7.45;5.32;;;27.40;51.60;;;;;;5038058;28;20510;-67
2022/05/18 09:17:58;;;;;;;6.05;4.80;;;27.30;51.60;;;;;;5043627;28;20025;-67
2022/05/18 09:20:26;;;;;;;8.48;5.28;;;27.40;51.50;;;;;;4997353;28;20046;-66
2022/05/18 09:23:10;;;;;;;8.70;5.80;;;27.50;51.50;;;;;;5038776;28;20033;-67
2022/05/18 09:25:53;;;;;;;7.43;6.10;;;27.50;51.40;;;;;;5032339;28;20068;-67
2022/05/18 09:28:34;;;;;;;8.25;7.03;;;27.50;51.40;;;;;;5035075;28;20036;-66
2022/05/18 09:31:35;;;;;;;7.13;6.15;;;27.50;51.40;;;;;;5037816;28;21383;-66
2022/05/18 09:34:19;;;;;;;5.75;4.75;;;27.50;51.30;;;;;;5028187;28;20395;-66
2022/05/18 09:37:08;;;;;;;9.57;6.65;;;27.60;51.60;;;;;;5040652;28;20104;-67
2022/05/18 09:39:42;;;;;;;8.82;5.75;;;27.60;51.30;;;;;;5040159;28;20464;-66
2022/05/18 09:42:14;;;;;;;7.00;4.32;;;27.50;51.50;;;;;;5040492;28;20024;-66
2022/05/18 09:44:45;;;;;;;6.90;5.18;;;27.60;51.60;;;;;;5041883;28;20025;-66
2022/05/18 09:47:15;;;;;;;5.53;3.92;;;27.70;51.40;;;;;;5039289;28;20091;-67
2022/05/18 09:49:45;;;;;;;7.00;4.40;;;27.70;51.50;;;;;;5038467;28;20171;-67
2022/05/18 09:52:12;;;;;;;7.28;5.97;;;27.90;51.50;;;;;;5037900;28;20017;-67
2022/05/18 09:54:38;;;;;;;7.28;5.82;;;28.00;51.90;;;;;;5039517;28;20025;-67
2022/05/18 09:57:13;;;;;;;8.00;5.78;;;28.10;51.10;;;;;;5038951;28;20214;-67
2022/05/18 09:59:51;;;;;;;6.68;5.43;;;28.20;51.10;;;;;;5030192;28;20747;-66
2022/05/18 10:07:52;;;;;;;6.93;4.55;;;28.70;50.00;;;;;;5037333;28;20087;-67
2022/05/18 10:10:24;;;;;;;6.55;5.05;;;28.80;49.80;;;;;;5039194;28;20414;-67
2022/05/18 10:12:58;;;;;;;6.72;4.60;;;28.70;49.50;;;;;;5036189;28;20509;-67
2022/05/18 10:15:43;;;;;;;6.65;5.05;;;28.80;49.60;;;;;;5047975;28;20111;-67
2022/05/18 10:18:23;;;;;;;7.57;5.82;;;28.80;49.40;;;;;;5040655;28;20087;-67
2022/05/18 10:21:34;;;;;;;7.60;6.80;;;28.80;49.20;;;;;;5041154;28;20455;-66
2022/05/18 10:24:33;;;;;;;9.85;5.95;;;28.80;48.70;;;;;;5034535;28;20037;-66
2022/05/18 10:27:10;;;;;;;7.97;5.00;;;28.50;49.00;;;;;;5042442;28;20150;-66
2022/05/18 10:29:35;;;;;;;5.28;4.18;;;28.60;49.50;;;;;;5042212;28;20044;-65
2022/05/18 10:32:21;;;;;;;9.13;6.68;;;28.70;49.50;;;;;;5041640;28;20021;-65
2022/05/18 10:34:52;;;;;;;9.02;7.65;;;28.70;49.10;;;;;;5038231;28;20038;-66
2022/05/18 10:37:30;;;;;;;7.13;4.70;;;28.50;48.60;;;;;;5046793;28;20716;-65
2022/05/18 10:40:10;;;;;;;6.03;4.70;;;28.40;49.30;;;;;;5045617;28;20033;-67
2022/05/18 10:42:47;;;;;;;4.43;3.30;;;28.60;49.20;;;;;;5044936;28;20502;-67
2022/05/18 10:45:25;;;;;;;6.40;5.15;;;28.70;49.10;;;;;;5046163;28;20125;-67
2022/05/18 10:47:53;;;;;;;6.63;5.10;;;28.80;48.60;;;;;;5045632;28;20422;-67
2022/05/18 10:50:20;;;;;;;7.55;5.82;;;28.90;48.50;;;;;;5046059;28;20029;-67
2022/05/18 10:52:47;;;;;;;6.85;4.32;;;28.90;48.50;;;;;;5042611;28;20415;-68
2022/05/18 10:55:19;;;;;;;5.80;4.40;;;29.10;48.40;;;;;;5044328;28;20032;-68
2022/05/18 10:58:11;;;;;;;7.65;4.20;;;29.00;47.50;;;;;;5043643;28;20025;-67
2022/05/18 11:00:50;;;;;;;5.38;3.83;;;29.10;47.60;;;;;;5044549;28;20036;-67
2022/05/18 11:03:41;;;;;;;5.50;3.70;;;29.10;47.50;;;;;;5045770;28;20120;-67
2022/05/18 11:06:16;;;;;;;8.52;6.55;;;29.20;47.70;;;;;;5040747;28;20105;-68
2022/05/18 11:08:42;;;;;;;7.85;4.38;;;29.40;47.20;;;;;;5041263;28;20029;-67
2022/05/18 11:11:38;;;;;;;6.18;4.03;;;29.50;47.50;;;;;;5037473;28;20403;-68
2022/05/18 11:14:45;;;;;;;6.35;4.03;;;29.70;47.40;;;;;;5036624;28;20025;-68
2022/05/18 11:17:36;;;;;;;4.32;3.65;;;29.90;47.10;;;;;;5038437;28;20017;-69
2022/05/18 11:20:34;;;;;;;6.05;4.10;;;30.10;46.90;;;;;;5054587;28;20022;-68
2022/05/18 11:23:08;;;;;;;5.90;4.38;;;30.10;46.60;;;;;;5038488;28;20105;-68
2022/05/18 11:26:05;;;;;;;6.20;4.57;;;30.10;46.20;;;;;;5035436;28;20371;-69
2022/05/18 11:29:00;;;;;;;7.22;6.18;;;30.10;46.30;;;;;;5032112;28;20102;-68
2022/05/18 11:31:48;;;;;;;8.10;5.60;;;29.90;46.10;;;;;;5040531;28;20026;-67
2022/05/18 11:34:47;;;;;;;8.02;6.70;;;30.00;46.30;;;;;;5044937;28;20031;-68
2022/05/18 11:37:27;;;;;;;6.53;3.80;;;30.20;45.90;;;;;;5063183;28;20020;-69
2022/05/18 11:40:20;;;;;;;5.43;4.00;;;30.00;46.20;;;;;;5042300;28;20487;-68
2022/05/18 11:42:49;;;;;;;5.50;4.32;;;30.20;46.10;;;;;;5041890;28;20033;-68
2022/05/18 11:45:38;;;;;;;3.10;2.80;;;30.10;45.90;;;;;;5034538;28;20037;-68
2022/05/18 11:48:27;;;;;;;5.97;3.70;;;30.30;46.00;;;;;;5040863;28;20079;-68
2022/05/18 11:51:12;;;;;;;5.78;4.20;;;30.60;46.00;;;;;;5041483;28;20059;-68
2022/05/18 11:54:02;;;;;;;4.97;2.70;;;30.90;45.40;;;;;;5042805;28;20014;-69
2022/05/18 11:56:53;;;;;;;5.90;4.28;;;31.00;45.20;;;;;;5045078;28;20475;-68
2022/05/18 11:59:51;;;;;;;4.72;3.38;;;30.70;44.90;;;;;;5040028;28;20506;-69
2022/05/18 12:02:51;;;;;;;4.78;3.00;;;30.70;45.30;;;;;;5037845;28;20107;-69
2022/05/18 12:05:31;;;;;;;4.72;3.03;;;30.80;45.40;;;;;;5040800;28;20040;-69
2022/05/18 12:08:09;;;;;;;4.65;2.80;;;31.00;45.20;;;;;;5039001;28;20541;-69
2022/05/18 12:10:48;;;;;;;4.85;2.88;;;31.20;45.20;;;;;;5053323;28;20028;-69
2022/05/18 12:13:21;;;;;;;5.43;4.00;;;31.50;44.90;;;;;;5061761;28;20024;-69
2022/05/18 12:16:00;;;;;;;6.32;3.70;;;31.60;44.30;;;;;;5054836;28;20029;-69
2022/05/18 12:18:33;;;;;;;4.18;3.00;;;31.40;43.70;;;;;;5041043;28;20690;-69
2022/05/18 12:21:18;;;;;;;3.92;3.15;;;31.30;43.90;;;;;;5038551;28;20045;-69
2022/05/18 12:23:51;;;;;;;6.03;3.38;;;31.60;44.00;;;;;;5039964;28;20044;-69
2022/05/18 12:26:21;;;;;;;4.82;2.90;;;31.90;43.60;;;;;;5046457;28;20037;-68
2022/05/18 12:28:47;;;;;;;4.10;2.33;;;32.00;43.30;;;;;;5038828;28;20060;-68
2022/05/18 12:31:14;;;;;;;2.75;1.90;;;32.20;43.30;;;;;;5041972;28;20025;-68
2022/05/18 12:34:02;;;;;;;3.15;2.10;;;32.20;43.10;;;;;;5038422;28;20026;-68
2022/05/18 12:36:41;;;;;;;1.98;1.77;;;32.10;43.00;;;;;;5043509;28;20420;-68
2022/05/18 12:39:32;;;;;;;4.40;2.50;;;31.90;43.30;;;;;;5043982;28;20044;-68
2022/05/18 12:41:59;;;;;;;2.93;2.10;;;31.70;43.30;;;;;;5035971;28;20514;-68
2022/05/18 12:44:37;;;;;;;2.80;1.90;;;31.60;43.50;;;;;;5042165;28;20032;-68
2022/05/18 12:47:17;;;;;;;3.78;2.05;;;31.50;43.50;;;;;;5043375;28;20052;-68
2022/05/18 12:49:43;;;;;;;4.13;2.22;;;31.30;43.30;;;;;;5046285;28;20024;-69
2022/05/18 12:52:17;;;;;;;4.00;2.45;;;31.00;43.50;;;;;;5044005;28;20428;-69
2022/05/18 12:54:50;;;;;;;2.17;1.70;;;30.80;43.90;;;;;;5041813;28;20029;-69
2022/05/18 12:57:41;;;;;;;2.47;1.80;;;30.70;44.30;;;;;;5045031;28;20383;-69
2022/05/18 13:00:24;;;;;;;2.22;1.70;;;30.50;44.40;;;;;;5040191;28;20029;-69
2022/05/18 13:02:55;;;;;;;2.65;2.00;;;30.50;44.50;;;;;;5038376;28;20031;-69
2022/05/18 13:05:26;;;;;;;3.17;1.40;;;30.50;44.30;;;;;;5030044;28;20037;-69
2022/05/18 13:07:54;;;;;;;3.38;1.75;;;30.50;44.40;;;;;;5041644;28;20095;-68
2022/05/18 13:10:27;;;;;;;3.85;2.30;;;30.60;44.30;;;;;;5034404;28;20495;-69
2022/05/18 13:13:00;;;;;;;3.95;2.70;;;30.60;44.00;;;;;;5040678;28;20032;-68
2022/05/18 13:15:35;;;;;;;3.35;2.00;;;30.50;44.00;;;;;;5045334;28;20059;-69
2022/05/18 13:18:08;;;;;;;4.18;2.45;;;30.40;44.10;;;;;;5052841;28;20025;-69
2022/05/18 13:20:45;;;;;;;4.10;2.40;;;30.30;44.20;;;;;;5049479;28;20726;-69
2022/05/18 13:23:24;;;;;;;4.97;1.90;;;30.20;44.40;;;;;;5041613;28;20104;-69
2022/05/18 13:25:58;;;;;;;2.67;1.88;;;30.20;44.60;;;;;;5037029;28;20506;-69